Terminal Aerodrome Forecast
Issued by NWS Mobile, AL

Current Version | Previous Version | Text Only | Print | Product List | Glossary On
Versions: 1 2 3 4 5 6 7 8 9 10 11 12 13 14 15 16 17 18 19 20 21 22
000
FTUS44 KMOB 250550 AAA
TAFMOB
TAF AMD
KMOB 250550Z 2506/2606 21007KT P6SM SCT004 BKN050
      TEMPO 2506/2510 4SM -SHRA BR BKN003
     FM251000 31011KT P6SM BKN050
     FM251300 34014G22KT P6SM SKC
     FM252200 35007KT P6SM SKC=

USA.gov is the U.S. government's official web portal to all federal, state and local government web resources and services.